Time;durP1;ratioP1;P1;durP2;ratioP2;P2;SDS_P1;SDS_P2;PMS_P1;PMS_P2;Temp;Humidity;BMP_temperature;BMP_pressure;BME280_temperature;BME280_humidity;BME280_pressure;Samples;Min_cycle;Max_cycle;Signal;HPM_P1;HPM_P2
2021/09/16 00:02:25;;;;;;;6.45;4.45;;;16.90;53.40;;;;;;5015801;28;20505;-62
2021/09/16 00:04:51;;;;;;;6.53;4.18;;;16.80;53.40;;;;;;5016638;28;20022;-62
2021/09/16 00:07:16;;;;;;;7.65;5.07;;;16.80;53.50;;;;;;5016990;28;20057;-62
2021/09/16 00:09:42;;;;;;;6.72;4.70;;;16.80;53.40;;;;;;5016427;28;20119;-62
2021/09/16 00:12:08;;;;;;;7.00;4.45;;;16.80;53.40;;;;;;5015360;28;20021;-62
2021/09/16 00:14:33;;;;;;;7.00;5.10;;;16.80;53.50;;;;;;5016698;28;20034;-62
2021/09/16 00:16:59;;;;;;;8.90;5.18;;;16.80;53.50;;;;;;5014765;28;20048;-62
2021/09/16 00:19:24;;;;;;;6.75;4.93;;;16.80;53.50;;;;;;5016450;28;20036;-62
2021/09/16 00:21:50;;;;;;;7.80;4.93;;;16.80;53.60;;;;;;5016226;28;20022;-62
2021/09/16 00:24:16;;;;;;;7.22;4.38;;;16.80;53.50;;;;;;5015542;28;20025;-62
2021/09/16 00:26:41;;;;;;;7.22;4.88;;;16.70;53.40;;;;;;5015474;28;20056;-62
2021/09/16 00:29:09;;;;;;;7.97;5.13;;;16.70;53.30;;;;;;5015534;28;20459;-62
2021/09/16 00:31:36;;;;;;;7.43;4.70;;;16.70;53.30;;;;;;5015652;28;20030;-62
2021/09/16 00:34:01;;;;;;;7.35;4.72;;;16.60;53.30;;;;;;5014044;28;20049;-62
2021/09/16 00:36:27;;;;;;;7.70;4.82;;;16.60;53.20;;;;;;4999764;28;20119;-62
2021/09/16 00:38:52;;;;;;;8.25;5.35;;;16.60;53.40;;;;;;5014594;28;20029;-62
2021/09/16 00:41:19;;;;;;;7.35;4.90;;;16.60;53.40;;;;;;5014919;28;20053;-62
2021/09/16 00:43:45;;;;;;;8.30;5.38;;;16.60;53.70;;;;;;5015008;28;20034;-62
2021/09/16 00:46:11;;;;;;;7.68;5.28;;;16.60;54.00;;;;;;5014896;28;20108;-62
2021/09/16 00:48:36;;;;;;;9.15;5.25;;;16.60;54.10;;;;;;5014907;28;20025;-62
2021/09/16 00:51:02;;;;;;;9.20;5.43;;;16.50;54.00;;;;;;5013727;28;20030;-62
2021/09/16 00:53:30;;;;;;;8.63;5.70;;;16.50;54.20;;;;;;5014616;28;20041;-62
2021/09/16 00:55:57;;;;;;;11.43;5.85;;;16.50;54.50;;;;;;5013860;28;20022;-62
2021/09/16 00:58:29;;;;;;;8.40;5.05;;;16.50;54.60;;;;;;5010010;28;20029;-62
2021/09/16 01:00:55;;;;;;;7.38;5.32;;;16.50;54.70;;;;;;5014924;28;20493;-62
2021/09/16 01:03:24;;;;;;;8.48;5.28;;;16.40;54.60;;;;;;5010271;28;20479;-62
2021/09/16 01:05:51;;;;;;;7.88;5.07;;;16.40;54.70;;;;;;5014757;28;20025;-62
2021/09/16 01:08:18;;;;;;;7.95;5.78;;;16.40;54.80;;;;;;5013902;28;20738;-62
2021/09/16 01:10:43;;;;;;;7.82;5.00;;;16.30;54.70;;;;;;5014333;28;20030;-62
2021/09/16 01:13:10;;;;;;;7.63;5.28;;;16.30;54.80;;;;;;5014349;28;20030;-62
2021/09/16 01:15:37;;;;;;;7.63;5.57;;;16.30;55.00;;;;;;5014510;28;20029;-62
2021/09/16 01:18:03;;;;;;;6.80;5.22;;;16.30;55.10;;;;;;5014362;28;20034;-62
2021/09/16 01:20:29;;;;;;;6.57;4.82;;;16.30;55.20;;;;;;5014344;28;20553;-62
2021/09/16 01:22:55;;;;;;;7.25;5.15;;;16.20;55.30;;;;;;4974684;28;1159118;-62
2021/09/16 01:25:29;;;;;;;9.45;5.50;;;16.20;55.50;;;;;;5014889;28;20042;-62
2021/09/16 01:27:57;;;;;;;8.82;5.95;;;16.20;55.60;;;;;;5015373;28;20489;-62
2021/09/16 01:30:23;;;;;;;9.45;6.28;;;16.20;55.80;;;;;;5015371;28;20046;-62
2021/09/16 01:32:50;;;;;;;8.63;5.55;;;16.20;55.90;;;;;;5015109;28;20033;-62
2021/09/16 01:35:17;;;;;;;10.15;6.25;;;16.10;56.10;;;;;;5014990;28;20072;-62
2021/09/16 01:37:43;;;;;;;8.52;5.97;;;16.10;56.40;;;;;;5014971;28;20018;-62
2021/09/16 01:40:10;;;;;;;11.98;8.35;;;16.10;56.50;;;;;;5006170;28;20030;-62
2021/09/16 01:42:43;;;;;;;9.73;6.80;;;16.10;56.60;;;;;;4995683;28;20437;-62
2021/09/16 01:45:17;;;;;;;10.02;6.70;;;16.10;57.40;;;;;;4995711;28;20034;-62
2021/09/16 01:47:44;;;;;;;9.20;6.32;;;16.00;56.90;;;;;;4995082;28;20450;-62
2021/09/16 01:50:12;;;;;;;9.20;6.30;;;16.00;56.80;;;;;;4994471;28;20048;-62
2021/09/16 01:52:38;;;;;;;9.25;6.13;;;16.00;56.90;;;;;;4995390;28;20413;-62
2021/09/16 01:55:04;;;;;;;9.52;5.65;;;16.00;57.00;;;;;;5006759;28;20084;-62
2021/09/16 01:57:30;;;;;;;7.65;5.47;;;16.00;57.00;;;;;;5014562;28;20033;-62
2021/09/16 01:59:56;;;;;;;8.23;5.60;;;16.00;57.10;;;;;;5014728;28;20041;-62
2021/09/16 02:02:21;;;;;;;8.43;6.13;;;15.90;57.00;;;;;;5014591;28;20056;-62
2021/09/16 02:04:47;;;;;;;7.75;5.10;;;16.00;57.20;;;;;;5014631;28;20088;-62
2021/09/16 02:07:13;;;;;;;8.23;5.95;;;16.00;57.30;;;;;;5014232;28;20474;-62
2021/09/16 02:09:38;;;;;;;8.40;5.68;;;16.00;57.30;;;;;;5014280;28;20080;-62
2021/09/16 02:12:05;;;;;;;11.30;6.63;;;16.00;57.40;;;;;;5013211;28;20032;-62
2021/09/16 02:14:30;;;;;;;11.95;7.10;;;16.00;57.30;;;;;;5014399;28;20022;-62
2021/09/16 02:16:56;;;;;;;9.07;6.20;;;15.90;57.30;;;;;;5012689;28;20049;-62
2021/09/16 02:19:21;;;;;;;10.50;6.32;;;16.00;57.40;;;;;;5012496;28;20018;-62
2021/09/16 02:21:47;;;;;;;11.52;7.10;;;15.90;57.60;;;;;;5013066;28;20041;-62
2021/09/16 02:24:13;;;;;;;10.40;6.00;;;16.00;57.70;;;;;;5013014;28;20045;-62
2021/09/16 02:26:38;;;;;;;8.85;5.70;;;15.90;57.40;;;;;;5014335;28;20460;-62
2021/09/16 02:29:04;;;;;;;8.48;5.93;;;15.90;57.40;;;;;;5013339;28;20029;-62
2021/09/16 02:31:30;;;;;;;9.95;6.50;;;15.90;57.30;;;;;;5014033;28;20128;-62
2021/09/16 02:33:55;;;;;;;10.15;6.40;;;15.90;57.10;;;;;;5014209;28;20425;-62
2021/09/16 02:36:21;;;;;;;8.20;5.78;;;15.90;57.00;;;;;;5014230;28;20057;-62
2021/09/16 02:38:47;;;;;;;9.55;6.15;;;15.90;57.00;;;;;;5013844;28;20391;-62
2021/09/16 02:41:13;;;;;;;10.88;6.85;;;15.90;56.90;;;;;;5013844;28;20045;-62
2021/09/16 02:43:38;;;;;;;11.65;6.70;;;15.90;56.90;;;;;;5013850;28;20048;-62
2021/09/16 02:46:04;;;;;;;9.68;6.30;;;15.90;56.90;;;;;;5013281;28;20034;-62
2021/09/16 02:48:30;;;;;;;11.18;6.85;;;15.90;56.90;;;;;;5013785;28;20038;-62
2021/09/16 02:50:55;;;;;;;9.30;6.55;;;15.90;57.50;;;;;;5013815;28;20034;-62
2021/09/16 02:53:21;;;;;;;9.90;6.65;;;15.90;56.70;;;;;;5014177;28;20049;-62
2021/09/16 02:55:46;;;;;;;10.52;6.28;;;15.90;56.60;;;;;;5013894;28;20018;-62
2021/09/16 02:58:12;;;;;;;8.82;6.00;;;15.80;56.50;;;;;;5012843;28;20053;-62
2021/09/16 03:00:38;;;;;;;9.32;6.43;;;15.80;56.40;;;;;;5014182;28;20044;-62
2021/09/16 03:03:04;;;;;;;8.52;5.95;;;15.80;56.40;;;;;;4996541;28;20395;-62
2021/09/16 03:05:29;;;;;;;11.43;6.28;;;15.80;56.40;;;;;;5009735;28;20030;-62
2021/09/16 03:07:55;;;;;;;9.43;5.35;;;15.80;56.50;;;;;;5013837;28;20478;-62
2021/09/16 03:10:21;;;;;;;8.85;6.07;;;15.80;57.10;;;;;;5013523;28;20029;-62
2021/09/16 03:12:46;;;;;;;9.77;6.80;;;15.80;56.30;;;;;;5013397;28;20057;-62
2021/09/16 03:15:12;;;;;;;10.32;6.30;;;15.80;56.30;;;;;;5013467;28;20124;-62
2021/09/16 03:17:38;;;;;;;9.70;6.07;;;15.90;56.40;;;;;;5012771;28;20025;-62
2021/09/16 03:20:05;;;;;;;10.20;6.90;;;15.80;56.30;;;;;;5013902;28;20030;-62
2021/09/16 03:22:30;;;;;;;11.75;6.78;;;15.80;56.30;;;;;;5013495;28;20045;-62
2021/09/16 03:24:56;;;;;;;10.52;6.68;;;15.90;56.50;;;;;;5012954;28;20044;-62
2021/09/16 03:27:21;;;;;;;9.05;6.35;;;15.90;56.40;;;;;;5013283;28;20026;-62
2021/09/16 03:29:48;;;;;;;10.13;6.30;;;15.90;56.40;;;;;;5013462;28;20033;-62
2021/09/16 03:32:13;;;;;;;8.00;6.00;;;15.90;56.40;;;;;;5013538;28;20026;-62
2021/09/16 03:34:39;;;;;;;9.00;6.28;;;16.00;56.40;;;;;;5013642;28;20478;-62
2021/09/16 03:37:05;;;;;;;9.52;6.22;;;16.00;56.40;;;;;;5012938;28;20072;-62
2021/09/16 03:39:30;;;;;;;9.35;6.25;;;16.00;56.40;;;;;;5013446;28;20022;-62
2021/09/16 03:41:56;;;;;;;11.50;6.60;;;16.00;56.50;;;;;;5013317;28;20514;-62
2021/09/16 03:44:22;;;;;;;10.05;6.82;;;16.10;56.60;;;;;;5013047;28;20478;-62
2021/09/16 03:46:47;;;;;;;8.55;6.68;;;16.10;56.60;;;;;;5013241;28;20022;-62
2021/09/16 03:49:13;;;;;;;8.57;6.18;;;16.10;56.70;;;;;;5013074;28;20026;-62
2021/09/16 03:51:39;;;;;;;10.75;6.78;;;16.10;56.50;;;;;;5004225;28;20034;-62
2021/09/16 03:54:04;;;;;;;11.38;6.75;;;16.20;56.70;;;;;;5002368;28;20104;-62
2021/09/16 03:56:30;;;;;;;8.90;6.00;;;16.20;56.90;;;;;;5013507;28;20033;-62
2021/09/16 03:58:56;;;;;;;10.80;6.80;;;16.20;57.20;;;;;;5013402;28;20022;-62
2021/09/16 04:01:21;;;;;;;9.85;6.97;;;16.20;57.40;;;;;;5012969;28;20034;-62
2021/09/16 04:03:47;;;;;;;9.93;7.22;;;16.30;57.50;;;;;;5013165;28;20121;-62
2021/09/16 04:06:13;;;;;;;12.52;7.07;;;16.30;57.70;;;;;;5012542;28;20080;-62
2021/09/16 04:08:38;;;;;;;10.00;6.45;;;16.30;57.80;;;;;;5012844;28;20101;-62
2021/09/16 04:11:04;;;;;;;11.50;7.07;;;16.30;57.70;;;;;;5013298;28;20057;-62
2021/09/16 04:13:30;;;;;;;11.70;6.82;;;16.30;57.80;;;;;;5013833;28;20022;-62
2021/09/16 04:15:55;;;;;;;10.55;6.75;;;16.30;58.00;;;;;;5008125;28;20026;-62
2021/09/16 04:18:21;;;;;;;8.70;6.03;;;16.40;58.20;;;;;;4996957;28;20030;-62
2021/09/16 04:20:47;;;;;;;11.45;7.13;;;16.40;58.30;;;;;;4996857;28;20069;-62
2021/09/16 04:23:12;;;;;;;13.27;7.20;;;16.40;58.50;;;;;;5009878;28;20081;-62
2021/09/16 04:25:38;;;;;;;11.13;7.38;;;16.40;58.80;;;;;;5016474;28;20060;-62
2021/09/16 04:28:04;;;;;;;10.80;7.90;;;16.50;59.00;;;;;;5016551;28;20179;-62
2021/09/16 04:30:29;;;;;;;15.35;7.75;;;16.50;59.20;;;;;;5016221;28;20049;-62
2021/09/16 04:32:55;;;;;;;11.98;8.30;;;16.60;59.50;;;;;;5016406;28;20352;-62
2021/09/16 04:35:21;;;;;;;11.15;7.45;;;16.60;59.90;;;;;;5016223;28;20490;-62
2021/09/16 04:37:46;;;;;;;11.43;7.47;;;16.60;60.00;;;;;;5006614;28;20057;-62
2021/09/16 04:40:12;;;;;;;11.02;8.27;;;16.70;60.10;;;;;;4996612;28;20034;-62
2021/09/16 04:42:39;;;;;;;14.13;8.30;;;16.70;60.40;;;;;;4996614;28;20034;-62
2021/09/16 04:45:06;;;;;;;11.70;7.68;;;16.80;60.60;;;;;;5015004;28;20129;-62
2021/09/16 04:47:32;;;;;;;11.93;8.45;;;16.70;60.60;;;;;;5016062;28;20068;-62
2021/09/16 04:49:57;;;;;;;12.75;8.20;;;16.80;60.80;;;;;;5015906;28;20057;-62
2021/09/16 04:52:25;;;;;;;11.98;8.45;;;16.80;60.80;;;;;;5015920;28;20442;-62
2021/09/16 04:54:51;;;;;;;17.65;8.73;;;16.80;61.20;;;;;;5015663;28;20030;-62
2021/09/16 04:57:17;;;;;;;12.77;8.57;;;16.90;61.20;;;;;;5016196;28;20024;-62
2021/09/16 04:59:42;;;;;;;14.32;8.50;;;16.90;61.40;;;;;;5012164;28;20558;-62
2021/09/16 05:02:08;;;;;;;14.05;8.23;;;17.00;61.40;;;;;;5012856;28;20029;-62
2021/09/16 05:04:34;;;;;;;12.18;8.15;;;17.10;61.40;;;;;;5014240;28;20159;-62
2021/09/16 05:06:59;;;;;;;11.98;8.68;;;17.10;61.30;;;;;;5009954;28;20026;-62
2021/09/16 05:09:25;;;;;;;13.18;7.55;;;17.20;61.30;;;;;;5009762;28;20022;-62
2021/09/16 05:11:51;;;;;;;10.32;7.38;;;17.30;61.20;;;;;;5013307;28;20415;-62
2021/09/16 05:14:16;;;;;;;10.20;7.10;;;17.30;61.20;;;;;;5013434;28;20062;-62
2021/09/16 05:16:42;;;;;;;12.52;7.93;;;17.30;61.10;;;;;;5016890;28;20018;-62
2021/09/16 05:19:08;;;;;;;11.43;7.93;;;17.40;61.10;;;;;;5020834;28;20014;-58
2021/09/16 05:21:34;;;;;;;13.45;8.82;;;17.40;61.40;;;;;;5009891;28;20442;-59
2021/09/16 05:23:59;;;;;;;12.20;8.30;;;17.40;61.50;;;;;;5008843;28;20050;-58
2021/09/16 05:26:25;;;;;;;11.40;9.20;;;17.40;61.60;;;;;;5016161;28;20061;-59
2021/09/16 05:28:51;;;;;;;16.92;10.63;;;17.40;61.80;;;;;;5008751;28;20030;-60
2021/09/16 05:31:16;;;;;;;14.35;9.20;;;17.40;61.90;;;;;;5014387;28;20120;-58
2021/09/16 05:33:42;;;;;;;12.73;8.48;;;17.40;62.10;;;;;;5013329;28;20086;-59
2021/09/16 05:36:08;;;;;;;12.27;8.70;;;17.30;62.30;;;;;;5016678;28;20049;-59
2021/09/16 05:38:36;;;;;;;13.65;9.02;;;17.30;62.50;;;;;;5014602;28;20029;-59
2021/09/16 05:41:02;;;;;;;13.15;7.88;;;17.30;62.70;;;;;;5016155;28;20109;-58
2021/09/16 05:43:28;;;;;;;13.68;8.43;;;17.30;62.90;;;;;;5010276;28;20425;-59
2021/09/16 05:45:53;;;;;;;12.40;7.22;;;17.30;63.10;;;;;;5012578;28;20033;-58
2021/09/16 05:48:20;;;;;;;11.65;7.60;;;17.30;63.30;;;;;;5011889;28;20394;-59
2021/09/16 05:50:46;;;;;;;11.50;7.63;;;17.40;63.60;;;;;;5003435;28;20030;-61
2021/09/16 05:53:12;;;;;;;10.80;7.10;;;17.40;63.60;;;;;;5009371;28;20121;-62
2021/09/16 05:55:39;;;;;;;10.65;7.20;;;17.40;63.80;;;;;;5014396;28;20022;-61
2021/09/16 05:58:06;;;;;;;12.45;7.32;;;17.50;63.90;;;;;;5007764;28;20038;-62
2021/09/16 06:00:32;;;;;;;9.50;7.07;;;17.60;63.60;;;;;;5006885;28;20034;-62
2021/09/16 06:02:58;;;;;;;9.25;6.93;;;17.80;64.00;;;;;;5005006;28;20515;-62
2021/09/16 06:05:23;;;;;;;11.10;8.05;;;17.90;63.40;;;;;;5006658;28;20044;-61
2021/09/16 06:07:49;;;;;;;12.63;7.72;;;18.00;63.30;;;;;;5034978;28;20034;-62
2021/09/16 06:10:15;;;;;;;10.95;7.25;;;18.00;63.40;;;;;;5010641;28;20062;-62
2021/09/16 06:12:41;;;;;;;11.48;7.47;;;18.10;63.30;;;;;;4995856;28;20034;-62
2021/09/16 06:15:07;;;;;;;11.73;8.15;;;18.10;63.30;;;;;;4997855;28;20030;-62
2021/09/16 06:17:33;;;;;;;11.50;7.93;;;18.20;63.40;;;;;;4993676;28;20022;-62
2021/09/16 06:19:59;;;;;;;13.57;8.80;;;18.30;63.40;;;;;;5003302;28;20136;-62
2021/09/16 06:22:24;;;;;;;14.20;8.40;;;18.30;63.50;;;;;;5003061;28;20468;-60
2021/09/16 06:24:50;;;;;;;13.43;8.02;;;18.40;63.60;;;;;;5002816;28;20033;-63
2021/09/16 06:27:16;;;;;;;13.00;7.95;;;18.40;63.60;;;;;;5006169;28;20071;-62
2021/09/16 06:29:41;;;;;;;9.30;7.00;;;18.40;63.90;;;;;;5006494;28;20045;-62
2021/09/16 06:32:07;;;;;;;10.52;7.50;;;18.40;63.70;;;;;;5003584;28;20026;-63
2021/09/16 06:34:33;;;;;;;10.65;8.07;;;18.50;63.90;;;;;;5004928;28;20033;-62
2021/09/16 06:36:58;;;;;;;10.35;6.75;;;18.50;63.80;;;;;;4999898;28;20100;-61
2021/09/16 06:39:24;;;;;;;10.18;6.30;;;18.50;63.80;;;;;;5003100;28;20683;-63
2021/09/16 06:41:50;;;;;;;9.43;6.53;;;18.60;63.60;;;;;;4997726;28;20113;-62
2021/09/16 06:44:15;;;;;;;9.90;6.90;;;18.60;63.60;;;;;;4999210;28;20783;-62
2021/09/16 06:46:41;;;;;;;9.70;6.03;;;18.60;63.50;;;;;;5002409;28;20033;-61
2021/09/16 06:49:07;;;;;;;10.30;5.78;;;18.70;63.40;;;;;;5000449;28;20045;-63
2021/09/16 06:51:33;;;;;;;8.60;6.07;;;18.70;63.30;;;;;;4996182;28;20034;-63
2021/09/16 06:53:58;;;;;;;8.82;5.22;;;18.80;63.20;;;;;;4995515;28;20034;-63
2021/09/16 06:56:24;;;;;;;8.60;5.80;;;18.80;63.00;;;;;;5002531;28;20453;-62
2021/09/16 06:58:50;;;;;;;9.45;5.88;;;18.90;63.00;;;;;;4997881;28;20084;-62
2021/09/16 07:01:15;;;;;;;8.38;6.47;;;18.90;63.00;;;;;;4996718;28;20034;-59
2021/09/16 07:03:41;;;;;;;8.85;6.60;;;19.00;63.10;;;;;;4993865;28;20044;-62
2021/09/16 07:06:07;;;;;;;8.07;6.05;;;19.00;63.00;;;;;;4997354;28;20049;-62
2021/09/16 07:08:32;;;;;;;7.88;6.00;;;19.10;63.10;;;;;;4995599;28;20081;-63
2021/09/16 07:10:58;;;;;;;10.95;6.60;;;19.10;63.10;;;;;;4992706;28;20739;-63
2021/09/16 07:13:24;;;;;;;9.55;6.32;;;19.20;63.00;;;;;;4996800;28;20092;-62
2021/09/16 07:15:49;;;;;;;9.02;5.80;;;19.20;62.90;;;;;;4994626;28;20726;-62
2021/09/16 07:18:15;;;;;;;8.18;5.60;;;19.20;62.80;;;;;;4993306;28;20049;-62
2021/09/16 07:20:41;;;;;;;6.72;4.93;;;19.20;62.60;;;;;;4994078;28;20026;-63
2021/09/16 07:23:06;;;;;;;8.10;5.60;;;19.30;62.60;;;;;;4986988;28;20410;-63
2021/09/16 07:25:32;;;;;;;7.18;5.38;;;19.30;62.60;;;;;;4992885;28;20036;-63
2021/09/16 07:27:58;;;;;;;7.88;5.35;;;19.40;62.60;;;;;;4992735;28;20037;-61
2021/09/16 07:30:23;;;;;;;8.40;5.68;;;19.40;62.60;;;;;;4998052;28;20041;-63
2021/09/16 07:32:49;;;;;;;8.13;5.53;;;19.40;62.70;;;;;;4996151;28;20030;-61
2021/09/16 07:35:15;;;;;;;7.82;5.45;;;19.50;62.60;;;;;;4994752;28;20686;-60
2021/09/16 07:37:40;;;;;;;7.80;5.10;;;19.40;62.40;;;;;;4993470;28;20358;-60
2021/09/16 07:40:06;;;;;;;8.10;5.85;;;19.50;62.30;;;;;;4996811;28;20061;-62
2021/09/16 07:42:32;;;;;;;7.85;5.00;;;19.50;62.20;;;;;;4994410;28;20084;-61
2021/09/16 07:44:58;;;;;;;9.07;5.50;;;19.50;62.10;;;;;;4996122;28;20042;-61
2021/09/16 07:47:23;;;;;;;7.95;4.78;;;19.50;62.00;;;;;;4994612;28;20042;-61
2021/09/16 07:49:50;;;;;;;8.93;5.03;;;19.50;62.00;;;;;;4999455;28;20145;-62
2021/09/16 07:52:16;;;;;;;7.43;5.30;;;19.60;62.00;;;;;;5013228;28;20100;-62
2021/09/16 07:54:42;;;;;;;5.82;4.43;;;19.50;61.80;;;;;;5001284;28;20517;-61
2021/09/16 07:57:08;;;;;;;6.35;4.05;;;19.60;61.50;;;;;;5000280;28;20030;-62
2021/09/16 07:59:33;;;;;;;6.78;4.47;;;19.60;61.50;;;;;;5008848;28;20085;-60
2021/09/16 08:02:00;;;;;;;6.10;4.03;;;19.60;61.20;;;;;;5002646;28;20109;-60
2021/09/16 08:04:25;;;;;;;5.43;3.72;;;19.60;61.00;;;;;;5005339;28;20122;-61
2021/09/16 08:06:51;;;;;;;6.03;3.97;;;19.70;61.20;;;;;;5003950;28;20113;-63
2021/09/16 08:09:17;;;;;;;6.35;4.20;;;19.70;61.10;;;;;;5004347;28;20524;-62
2021/09/16 08:11:42;;;;;;;5.80;4.10;;;19.70;60.90;;;;;;5001874;28;20031;-62
2021/09/16 08:14:09;;;;;;;6.55;4.10;;;19.70;60.80;;;;;;5000078;28;20437;-61
2021/09/16 08:16:35;;;;;;;5.93;4.03;;;19.70;60.80;;;;;;4999197;28;20112;-62
2021/09/16 08:19:02;;;;;;;5.80;3.78;;;19.70;60.80;;;;;;5002206;28;20142;-61
2021/09/16 08:21:27;;;;;;;5.93;3.80;;;19.80;60.70;;;;;;5004791;28;20064;-62
2021/09/16 08:23:54;;;;;;;5.75;3.80;;;19.80;60.60;;;;;;5005131;28;20041;-62
2021/09/16 08:26:19;;;;;;;6.63;4.15;;;19.80;60.40;;;;;;4999825;28;20348;-62
2021/09/16 08:28:46;;;;;;;4.82;3.30;;;19.80;60.20;;;;;;4998983;28;20044;-63
2021/09/16 08:31:12;;;;;;;6.72;3.72;;;19.80;60.20;;;;;;5000514;28;20448;-61
2021/09/16 08:33:39;;;;;;;6.15;3.67;;;19.80;60.00;;;;;;5000350;28;20021;-62
2021/09/16 08:36:05;;;;;;;4.75;3.63;;;19.80;59.50;;;;;;5003756;28;20778;-61
2021/09/16 08:38:30;;;;;;;4.03;2.92;;;19.80;59.10;;;;;;5002149;28;20125;-61
2021/09/16 08:40:56;;;;;;;4.15;2.72;;;19.80;59.00;;;;;;4997273;28;20038;-62
2021/09/16 08:43:31;;;;;;;4.22;2.95;;;19.80;58.40;;;;;;4998760;28;20038;-63
2021/09/16 08:45:58;;;;;;;3.90;2.60;;;19.90;58.20;;;;;;4993624;28;20053;-62
2021/09/16 08:48:24;;;;;;;4.75;2.65;;;19.80;57.30;;;;;;4999363;28;20057;-61
2021/09/16 08:50:50;;;;;;;3.72;2.50;;;19.80;56.70;;;;;;5002942;28;20475;-60
2021/09/16 08:53:24;;;;;;;3.47;2.30;;;19.80;56.60;;;;;;4998868;28;20033;-64
2021/09/16 08:55:51;;;;;;;3.78;2.50;;;19.80;56.60;;;;;;4996932;28;21127;-62
2021/09/16 08:58:24;;;;;;;3.00;2.17;;;19.80;56.50;;;;;;4999415;28;20054;-63
2021/09/16 09:00:50;;;;;;;2.17;1.90;;;19.80;56.70;;;;;;4996037;28;20540;-63
2021/09/16 09:03:16;;;;;;;4.00;2.00;;;19.80;55.90;;;;;;4999193;28;20030;-62
2021/09/16 09:05:43;;;;;;;2.42;2.13;;;19.80;55.80;;;;;;4997165;28;20029;-64
2021/09/16 09:08:09;;;;;;;3.10;2.10;;;19.80;55.30;;;;;;4995210;28;20169;-61
2021/09/16 09:10:41;;;;;;;3.85;2.00;;;19.80;55.20;;;;;;4997951;28;20044;-62
2021/09/16 09:13:32;;;;;;;1.58;1.48;;;19.80;54.80;;;;;;5001829;28;20399;-61
2021/09/16 09:16:07;;;;;;;3.92;2.00;;;19.80;54.40;;;;;;5001032;28;22031;-61
2021/09/16 09:18:42;;;;;;;2.53;1.80;;;19.80;54.40;;;;;;5005441;28;20044;-61
2021/09/16 09:21:10;;;;;;;1.70;1.58;;;19.80;54.20;;;;;;5003157;28;20121;-59
2021/09/16 09:23:54;;;;;;;3.17;1.80;;;19.80;53.90;;;;;;5000405;28;20064;-62
2021/09/16 09:26:22;;;;;;;2.42;1.75;;;19.80;54.00;;;;;;4997074;28;20637;-61
2021/09/16 09:28:49;;;;;;;2.05;1.77;;;19.90;53.90;;;;;;4986047;28;20034;-61
2021/09/16 09:31:21;;;;;;;1.70;1.60;;;19.90;53.80;;;;;;4998695;28;20498;-62
2021/09/16 09:33:47;;;;;;;1.40;1.30;;;19.90;53.50;;;;;;4999520;28;20030;-61
2021/09/16 09:36:18;;;;;;;2.97;1.40;;;19.90;53.30;;;;;;4993214;28;20033;-61
2021/09/16 09:39:01;;;;;;;1.90;1.77;;;19.90;52.80;;;;;;4992325;28;20069;-62
2021/09/16 09:41:34;;;;;;;1.33;1.23;;;19.90;52.20;;;;;;4996772;28;20104;-61
2021/09/16 09:44:01;;;;;;;1.60;1.50;;;19.90;52.10;;;;;;4993837;28;20088;-61
2021/09/16 09:46:27;;;;;;;2.15;1.67;;;19.90;51.70;;;;;;4997779;28;20562;-61
2021/09/16 09:49:00;;;;;;;1.60;1.50;;;19.90;51.40;;;;;;5006604;28;20026;-61
2021/09/16 09:51:42;;;;;;;1.60;1.40;;;19.90;51.00;;;;;;5008631;28;20109;-61
2021/09/16 09:54:20;;;;;;;2.05;1.55;;;19.90;50.80;;;;;;5007156;28;20478;-61
2021/09/16 09:57:13;;;;;;;3.22;1.77;;;19.90;50.60;;;;;;5005692;28;20033;-62
2021/09/16 10:00:00;;;;;;;2.50;1.70;;;19.90;50.00;;;;;;5001776;28;20064;-61
2021/09/16 10:02:52;;;;;;;2.47;1.50;;;19.90;50.00;;;;;;4998794;28;20022;-61
2021/09/16 10:05:20;;;;;;;1.83;1.73;;;19.90;49.70;;;;;;5003491;28;20069;-61
2021/09/16 10:07:45;;;;;;;4.35;2.00;;;19.90;49.60;;;;;;5000464;28;20940;-60
2021/09/16 10:10:12;;;;;;;2.10;1.77;;;19.90;49.50;;;;;;4996512;28;20029;-61
2021/09/16 10:12:39;;;;;;;2.15;1.80;;;19.90;49.90;;;;;;4997575;28;20034;-61
2021/09/16 10:15:14;;;;;;;1.83;1.50;;;19.90;49.40;;;;;;5000780;28;20029;-60
2021/09/16 10:17:40;;;;;;;2.38;2.08;;;20.00;49.20;;;;;;5000033;28;20035;-61
2021/09/16 10:20:08;;;;;;;2.40;1.95;;;20.00;49.40;;;;;;5002372;28;20045;-62
2021/09/16 10:22:35;;;;;;;3.38;2.10;;;20.00;49.30;;;;;;4998698;28;20054;-61
2021/09/16 10:25:01;;;;;;;2.38;1.98;;;20.00;49.20;;;;;;5002309;28;20030;-61
2021/09/16 10:27:34;;;;;;;3.13;1.98;;;20.00;49.20;;;;;;5003969;28;20429;-62
2021/09/16 10:30:23;;;;;;;2.50;1.80;;;20.00;49.30;;;;;;5003722;28;20030;-62
2021/09/16 10:33:23;;;;;;;2.35;1.80;;;20.10;49.20;;;;;;4997609;28;20022;-61
2021/09/16 10:35:58;;;;;;;3.15;1.75;;;20.10;49.40;;;;;;5006343;28;20572;-61
2021/09/16 10:38:37;;;;;;;2.33;1.70;;;20.10;49.50;;;;;;5000116;28;20629;-61
2021/09/16 10:41:25;;;;;;;2.03;1.80;;;20.10;49.40;;;;;;4997242;28;20040;-61
2021/09/16 10:44:18;;;;;;;2.72;2.05;;;20.10;49.40;;;;;;5000097;28;20037;-61
2021/09/16 10:46:49;;;;;;;3.05;1.70;;;20.10;49.50;;;;;;5010657;28;20052;-62
2021/09/16 10:49:24;;;;;;;1.80;1.67;;;20.10;49.60;;;;;;5008247;28;20034;-63
2021/09/16 10:52:01;;;;;;;1.65;1.55;;;20.10;49.60;;;;;;5001069;28;20458;-62
2021/09/16 10:54:45;;;;;;;1.60;1.50;;;20.10;49.50;;;;;;5002005;28;20091;-61
2021/09/16 10:57:15;;;;;;;1.52;1.42;;;20.10;49.30;;;;;;5009663;28;20105;-61
2021/09/16 10:59:53;;;;;;;1.83;1.43;;;20.20;49.30;;;;;;5003094;28;20537;-61
2021/09/16 11:02:38;;;;;;;1.30;1.20;;;20.20;49.20;;;;;;5004342;28;20282;-61
2021/09/16 11:05:09;;;;;;;2.55;1.13;;;20.20;49.20;;;;;;5001483;28;20030;-61
2021/09/16 11:07:38;;;;;;;1.55;1.20;;;20.20;49.20;;;;;;5001531;28;20537;-61
2021/09/16 11:10:16;;;;;;;2.55;1.45;;;20.20;49.10;;;;;;5005218;28;20729;-60
2021/09/16 11:12:57;;;;;;;1.70;1.60;;;20.20;48.90;;;;;;5006937;28;20034;-61
2021/09/16 11:15:30;;;;;;;1.77;1.58;;;20.30;48.90;;;;;;5005494;28;20034;-61
2021/09/16 11:18:10;;;;;;;1.42;1.33;;;20.30;48.80;;;;;;5006292;28;20101;-61
2021/09/16 11:20:38;;;;;;;1.85;1.27;;;20.30;48.80;;;;;;5015756;28;20041;-61
2021/09/16 11:23:04;;;;;;;1.67;1.52;;;20.30;48.90;;;;;;5014281;28;20050;-60
2021/09/16 11:25:58;;;;;;;1.95;1.60;;;20.30;48.70;;;;;;5013873;28;20537;-61
2021/09/16 11:28:23;;;;;;;2.47;1.80;;;20.30;48.50;;;;;;5006732;28;20706;-61
2021/09/16 11:30:53;;;;;;;2.85;1.77;;;20.30;48.50;;;;;;5007572;28;20029;-61
2021/09/16 11:33:20;;;;;;;2.65;1.63;;;20.30;48.60;;;;;;5005099;28;20030;-61
2021/09/16 11:35:49;;;;;;;2.67;1.65;;;20.30;48.50;;;;;;5013029;28;20038;-61
2021/09/16 11:38:16;;;;;;;1.95;1.80;;;20.30;48.40;;;;;;5001672;28;20044;-61
2021/09/16 11:40:44;;;;;;;3.10;2.00;;;20.40;48.50;;;;;;5006192;28;20034;-62
2021/09/16 11:43:14;;;;;;;1.95;1.75;;;20.30;48.50;;;;;;5003114;28;20053;-62
2021/09/16 11:45:45;;;;;;;1.92;1.83;;;20.40;48.80;;;;;;5004504;28;20038;-62
2021/09/16 11:48:22;;;;;;;2.67;1.77;;;20.40;48.80;;;;;;5005217;28;20209;-61
2021/09/16 11:50:57;;;;;;;2.15;1.92;;;20.40;48.80;;;;;;5001318;28;20763;-61
2021/09/16 11:53:25;;;;;;;3.97;2.10;;;20.40;48.60;;;;;;5005871;28;20030;-63
2021/09/16 11:55:52;;;;;;;3.10;2.42;;;20.40;48.60;;;;;;5008289;28;20477;-62
2021/09/16 11:58:20;;;;;;;4.72;2.80;;;20.40;48.50;;;;;;5012403;28;20124;-62
2021/09/16 12:00:50;;;;;;;4.00;3.10;;;20.40;48.40;;;;;;5010157;28;20041;-63
2021/09/16 12:03:21;;;;;;;3.25;2.67;;;20.40;48.90;;;;;;5006094;28;20038;-63
2021/09/16 12:05:47;;;;;;;;;;;20.40;48.40;;;;;;4997284;28;20053;-63
2021/09/16 12:08:20;;;;;;;3.53;2.58;;;20.40;48.40;;;;;;5000672;28;20008;-62
2021/09/16 12:11:07;;;;;;;3.72;2.80;;;20.40;48.50;;;;;;5009817;28;20588;-63
2021/09/16 12:13:38;;;;;;;4.72;2.97;;;20.40;48.40;;;;;;5000602;28;20411;-63
2021/09/16 12:16:16;;;;;;;4.15;2.97;;;20.40;48.20;;;;;;5005114;28;20040;-63
2021/09/16 12:18:43;;;;;;;3.35;2.65;;;20.40;48.30;;;;;;5005491;28;20033;-63
2021/09/16 12:21:15;;;;;;;3.42;2.58;;;20.50;48.30;;;;;;5004681;28;20030;-63
2021/09/16 12:23:49;;;;;;;3.20;2.63;;;20.50;48.40;;;;;;4998600;28;20065;-62
2021/09/16 12:26:20;;;;;;;3.72;2.33;;;20.50;48.30;;;;;;4999722;28;20042;-63
2021/09/16 12:28:57;;;;;;;5.88;2.63;;;20.50;48.30;;;;;;5003552;28;20038;-63
2021/09/16 12:31:54;;;;;;;4.05;2.50;;;20.50;48.20;;;;;;5000822;28;20037;-62
2021/09/16 12:34:20;;;;;;;3.00;2.22;;;20.50;48.10;;;;;;4999536;28;20046;-63
2021/09/16 12:36:51;;;;;;;2.30;2.10;;;20.50;48.10;;;;;;5002557;28;20512;-62
2021/09/16 12:39:16;;;;;;;2.35;1.83;;;20.60;48.30;;;;;;5001204;28;22757;-61
2021/09/16 12:42:04;;;;;;;2.92;2.47;;;20.60;48.30;;;;;;5001016;28;20041;-61
2021/09/16 12:44:39;;;;;;;3.53;2.45;;;20.60;48.50;;;;;;5002721;28;20033;-60
2021/09/16 12:47:09;;;;;;;2.50;2.15;;;20.60;48.40;;;;;;5001916;28;20029;-61
2021/09/16 12:49:50;;;;;;;3.08;2.60;;;20.60;48.20;;;;;;5004036;28;20998;-64